Historique des mesures à Cassis (13260), France
Quotidien Résumé Juin 3, 2021 Unités:  US    Métrique   Métrique/US
Quotidien Hebdomadaire Mensuel Annuel
  Maximum: Minimum: Moyenne:
Température: 79.5 °F 68.2 °F 72.1 °F
Point de rosée: 65.8 °F 61.5 °F 63.9 °F
Humidité: 87% 63% 76%
Vitesse du vent: 9.8mph 0mph 3.2mph
Rafales: 16.1mph - -
Vent- - SE
Pression: 29.9 in 29.8 in -
Précipitations: 0.2 in    
Historical Graphs
 
 
Mesures pour : Juin 3, 2021
Heure Temperature Point de rosée Pression Vent Vitesse du vent Rafales Humidité Pluie (par heure)
00:11 68.7 °F 61.5 °F 29.9 in SE 1.6 mph 7.6 mph 78% 0 in
01:11 68.7 °F 62.1 °F 29.9 in ESE 2.9 mph 4.7 mph 79% 0 in
02:11 68.5 °F 62.2 °F 29.9 in SE 9.8 mph 9.8 mph 80% 0 in
03:11 68.2 °F 62.2 °F 29.9 in East 2.5 mph 7 mph 81% 0 in
04:11 68.4 °F 62.4 °F 29.9 in ESE 2.2 mph 8.9 mph 81% 0 in
05:11 68.5 °F 62.4 °F 29.8 in ESE 2 mph 4.2 mph 81% 0 in
06:11 68.5 °F 62.2 °F 29.8 in ENE 3.8 mph 5.2 mph 80% 0 in
07:11 68.2 °F 62.4 °F 29.8 in SE 2.7 mph 8.7 mph 82% 0 in
08:11 68.7 °F 62.6 °F 29.8 in ESE 2.2 mph 10.3 mph 81% 0 in
09:11 70.2 °F 63.7 °F 29.8 in ESE 2.7 mph 7.1 mph 80% 0 in
10:11 72 °F 64.8 °F 29.8 in ESE 2.5 mph 7.8 mph 78% 0 in
11:11 74.1 °F 65.7 °F 29.8 in SE 5.8 mph 9.4 mph 75% 0 in
12:11 76.3 °F 65.5 °F 29.8 in SE 3.6 mph 7.1 mph 69% 0 in
13:11 78.1 °F 64.4 °F 29.8 in SE 6.5 mph 13 mph 63% 0 in
14:11 78.1 °F 64.4 °F 29.8 in SE 2.9 mph 6.3 mph 63% 0 in
15:11 79.5 °F 65.8 °F 29.8 in ESE 5.3 mph 13.4 mph 63% 0 in
16:11 79 °F 65.3 °F 29.8 in East 1.6 mph 10.3 mph 63% 0 in
17:11 76.3 °F 64.6 °F 29.8 in Calm   6.3 mph 67% 0 in
18:11 74.7 °F 64.2 °F 29.8 in SSE 3.1 mph 7.6 mph 70% 0 in
19:11 73.2 °F 64 °F 29.8 in SSE 2.9 mph 10.9 mph 73% 0 in
20:11 72.5 °F 64 °F 29.8 in SE 1.8 mph 6.7 mph 75% 0 in
21:11 70 °F 64.6 °F 29.8 in SSE 3.8 mph 10.3 mph 83% 0.18 in
22:11 69.6 °F 65.1 °F 29.8 in ESE 2.5 mph 16.1 mph 86% 0.02 in
23:11 69.6 °F 65.5 °F 29.8 in South 3.4 mph 10.1 mph 87% 0 in
Observations météo à CASSIS
WU-History script by Weather Underground - 2 mb